createdAt,value
2018-07-23T00:01:33.854Z,68.99
2018-07-23T00:04:02.018Z,69.30
2018-07-23T00:06:30.381Z,69.46
2018-07-23T00:08:58.773Z,69.73
2018-07-23T00:11:28.127Z,69.73
2018-07-23T00:13:56.509Z,69.38
2018-07-23T00:16:24.877Z,69.29
2018-07-23T00:18:53.243Z,69.32
2018-07-23T00:21:21.615Z,69.49
2018-07-23T00:23:49.986Z,69.55
2018-07-23T00:26:18.353Z,69.41
2018-07-23T00:28:46.731Z,69.82
2018-07-23T00:31:15.098Z,70.05
2018-07-23T00:33:43.469Z,69.64
2018-07-23T00:36:11.845Z,69.29
2018-07-23T00:38:40.230Z,69.31
2018-07-23T00:41:08.581Z,69.21
2018-07-23T00:43:36.950Z,69.40
2018-07-23T00:46:05.322Z,69.45
2018-07-23T00:48:33.685Z,69.57
2018-07-23T00:51:02.057Z,69.33
2018-07-23T00:53:30.421Z,69.13
2018-07-23T00:55:58.795Z,69.14
2018-07-23T00:58:27.171Z,69.30
2018-07-23T01:00:55.551Z,69.01
2018-07-23T01:03:24.036Z,68.66
2018-07-23T01:05:52.409Z,68.29
2018-07-23T01:08:20.791Z,68.39
2018-07-23T01:10:49.147Z,69.25
2018-07-23T01:13:17.740Z,69.96
2018-07-23T01:15:45.877Z,70.24
2018-07-23T01:18:14.242Z,69.87
2018-07-23T01:20:42.618Z,69.47
2018-07-23T01:23:10.976Z,69.29
2018-07-23T01:25:39.342Z,69.26
2018-07-23T01:28:07.706Z,69.63
2018-07-23T01:30:36.077Z,70.38
2018-07-23T01:33:04.456Z,71.04
2018-07-23T01:35:32.815Z,71.29
2018-07-23T01:38:01.182Z,71.54
2018-07-23T01:40:29.542Z,71.63
2018-07-23T01:42:57.921Z,71.74
2018-07-23T01:45:26.593Z,71.91
2018-07-23T01:47:54.957Z,71.48
2018-07-23T01:50:23.322Z,70.73
2018-07-23T01:52:51.686Z,70.09
2018-07-23T01:55:20.055Z,70.08
2018-07-23T01:57:48.426Z,69.79
2018-07-23T02:00:16.786Z,69.57
2018-07-23T02:02:45.176Z,69.55
2018-07-23T02:05:13.569Z,69.88
2018-07-23T02:07:41.936Z,70.05
2018-07-23T02:10:10.310Z,69.73
2018-07-23T02:12:38.686Z,69.72
2018-07-23T02:15:07.075Z,69.51
2018-07-23T02:17:35.435Z,69.47
2018-07-23T02:20:04.464Z,69.47
2018-07-23T02:22:32.824Z,69.77
2018-07-23T02:25:01.182Z,69.82
2018-07-23T02:27:29.557Z,69.35
2018-07-23T02:29:57.917Z,69.04
2018-07-23T02:32:26.296Z,69.01
2018-07-23T02:34:54.656Z,69.20
2018-07-23T02:37:23.121Z,69.03
2018-07-23T02:39:51.388Z,69.14
2018-07-23T02:42:19.981Z,69.50
2018-07-23T02:44:48.338Z,69.27
2018-07-23T02:47:16.708Z,69.31
2018-07-23T02:49:45.080Z,68.93
2018-07-23T02:52:13.446Z,68.71
2018-07-23T02:54:42.698Z,68.33
2018-07-23T02:57:11.070Z,68.37
2018-07-23T02:59:39.453Z,68.66
2018-07-23T03:02:07.815Z,68.71
2018-07-23T03:04:36.176Z,68.73
2018-07-23T03:07:04.575Z,68.95
2018-07-23T03:09:32.944Z,69.25
2018-07-23T03:12:01.312Z,69.59
2018-07-23T03:14:31.650Z,69.88
2018-07-23T03:17:00.035Z,70.49
2018-07-23T03:19:28.406Z,71.08
2018-07-23T03:21:56.829Z,71.49
2018-07-23T03:24:25.169Z,71.77
2018-07-23T03:26:53.510Z,71.92
2018-07-23T03:29:22.104Z,72.15
2018-07-23T03:31:50.240Z,71.95
2018-07-23T03:34:18.608Z,72.05
2018-07-23T03:36:46.991Z,72.10
2018-07-23T03:39:15.364Z,72.17
2018-07-23T03:41:43.736Z,72.21
2018-07-23T03:50:09.513Z,71.56
2018-07-23T03:52:37.907Z,71.22
2018-07-23T03:55:06.290Z,70.95
2018-07-23T03:57:34.680Z,71.06
2018-07-23T04:00:03.052Z,70.78
2018-07-23T04:02:31.444Z,70.59
2018-07-23T04:04:59.837Z,70.46
2018-07-23T04:07:28.245Z,70.06
2018-07-23T04:09:56.626Z,69.87
2018-07-23T04:12:25.004Z,69.71
2018-07-23T04:14:53.416Z,69.63
2018-07-23T04:17:21.810Z,69.55
2018-07-23T04:19:50.178Z,69.06
2018-07-23T04:22:18.555Z,68.70
2018-07-23T04:24:46.933Z,68.00
2018-07-23T04:27:15.339Z,67.36
2018-07-23T04:29:43.685Z,67.02
2018-07-23T04:32:12.152Z,66.82
2018-07-23T04:34:40.522Z,66.54
2018-07-23T04:37:08.885Z,66.22
2018-07-23T04:39:37.254Z,65.83
2018-07-23T04:42:05.643Z,65.68
2018-07-23T04:44:34.012Z,65.19
2018-07-23T04:47:02.395Z,64.88
2018-07-23T04:49:30.776Z,64.67
2018-07-23T04:51:59.156Z,64.73
2018-07-23T04:54:27.522Z,64.87
2018-07-23T04:56:55.936Z,64.92
2018-07-23T04:59:24.296Z,64.91
2018-07-23T05:01:52.668Z,64.41
2018-07-23T05:04:21.053Z,64.79
2018-07-23T05:06:49.415Z,64.88
2018-07-23T05:09:17.851Z,64.83
2018-07-23T05:11:46.283Z,64.86
2018-07-23T05:14:14.677Z,64.77
2018-07-23T05:16:43.066Z,64.69
2018-07-23T05:19:11.667Z,64.39
2018-07-23T05:24:29.084Z,63.82
2018-07-23T05:26:57.430Z,63.36
2018-07-23T05:29:25.815Z,62.93
2018-07-23T05:31:54.232Z,62.64
2018-07-23T05:34:22.580Z,62.58
2018-07-23T05:42:42.074Z,62.70
2018-07-23T05:45:06.421Z,62.23
2018-07-23T05:47:34.797Z,62.10
2018-07-23T05:50:03.200Z,61.73
2018-07-23T05:52:31.598Z,61.09
2018-07-23T05:54:59.993Z,60.56
2018-07-23T05:57:28.412Z,60.40
2018-07-23T05:59:56.806Z,60.23
2018-07-23T06:02:25.986Z,60.08
2018-07-23T06:04:54.376Z,59.78
2018-07-23T06:07:22.792Z,59.90
2018-07-23T06:09:51.252Z,59.91
2018-07-23T06:12:19.638Z,59.72
2018-07-23T06:14:48.239Z,59.46
2018-07-23T06:17:17.196Z,59.63
2018-07-23T06:19:45.948Z,59.39
2018-07-23T06:22:14.865Z,58.96
2018-07-23T06:24:43.314Z,58.75
2018-07-23T06:27:11.972Z,58.26
2018-07-23T06:29:40.347Z,58.30
2018-07-23T06:32:08.776Z,58.25
2018-07-23T06:34:37.121Z,57.63
2018-07-23T06:37:05.496Z,56.88
2018-07-23T06:39:33.870Z,56.79
2018-07-23T06:42:11.195Z,55.36
2018-07-23T06:44:35.883Z,54.79
2018-07-23T06:47:04.268Z,54.51
2018-07-23T06:49:32.650Z,54.27
2018-07-23T06:52:01.026Z,53.59
2018-07-23T06:54:29.404Z,52.54
2018-07-23T06:56:58.067Z,53.07
2018-07-23T06:59:26.165Z,52.52
2018-07-23T07:01:54.542Z,52.75
2018-07-23T07:04:28.080Z,52.70
2018-07-23T07:06:56.481Z,52.98
2018-07-23T07:09:25.782Z,53.37
2018-07-23T07:11:53.408Z,52.80
2018-07-23T07:14:21.803Z,51.72
2018-07-23T07:16:50.171Z,51.08
2018-07-23T07:19:18.553Z,50.86
2018-07-23T07:21:46.934Z,50.53
2018-07-23T07:24:15.366Z,50.42
2018-07-23T07:26:43.693Z,50.65
2018-07-23T07:29:12.084Z,50.48
2018-07-23T07:31:41.175Z,50.11
2018-07-23T07:34:09.541Z,49.97
2018-07-23T07:36:37.913Z,49.28
2018-07-23T07:39:10.548Z,49.43
2018-07-23T07:41:36.261Z,48.64
2018-07-23T07:44:04.625Z,48.45
2018-07-23T07:46:33.059Z,49.13
2018-07-23T07:49:01.376Z,49.04
2018-07-23T07:51:29.742Z,48.28
2018-07-23T07:53:58.139Z,48.19
2018-07-23T07:56:26.523Z,47.77
2018-07-23T07:58:54.902Z,47.40
2018-07-23T08:01:23.270Z,46.74
2018-07-23T08:03:51.638Z,46.52
2018-07-23T08:06:20.016Z,45.56
2018-07-23T08:08:48.738Z,45.31
2018-07-23T08:11:17.123Z,44.60
2018-07-23T08:13:45.519Z,44.57
2018-07-23T08:16:13.887Z,45.23
2018-07-23T08:18:42.242Z,45.90
2018-07-23T08:21:10.608Z,46.04
2018-07-23T08:23:38.978Z,44.60
2018-07-23T08:26:07.340Z,44.48
2018-07-23T08:28:35.702Z,44.55
2018-07-23T08:31:04.071Z,44.36
2018-07-23T08:33:32.447Z,45.06
2018-07-23T08:36:00.806Z,44.46
2018-07-23T08:38:29.260Z,43.77
2018-07-23T08:40:57.585Z,43.31
2018-07-23T08:43:25.960Z,43.06
2018-07-23T08:45:54.344Z,43.56
2018-07-23T08:48:22.722Z,43.40
2018-07-23T08:50:51.099Z,43.18
2018-07-23T08:53:19.464Z,43.24
2018-07-23T08:55:47.833Z,43.09
2018-07-23T08:58:16.480Z,43.00
2018-07-23T09:00:44.868Z,42.76
2018-07-23T09:03:13.464Z,42.40
2018-07-23T09:05:41.599Z,42.57
2018-07-23T09:08:09.969Z,42.75
2018-07-23T09:10:38.338Z,42.71
2018-07-23T09:13:06.709Z,42.75
2018-07-23T09:15:35.122Z,42.65
2018-07-23T09:18:03.514Z,42.18
2018-07-23T09:20:32.189Z,41.59
2018-07-23T09:23:03.987Z,41.00
2018-07-23T09:25:32.383Z,41.53
2018-07-23T09:28:00.761Z,41.55
2018-07-23T09:30:29.426Z,41.37
2018-07-23T09:32:57.787Z,41.39
2018-07-23T09:35:26.150Z,41.71
2018-07-23T09:37:54.521Z,41.83
2018-07-23T09:40:22.900Z,41.16
2018-07-23T09:42:51.255Z,41.27
2018-07-23T09:45:21.705Z,41.14
2018-07-23T09:47:49.746Z,41.26
2018-07-23T09:50:18.127Z,41.14
2018-07-23T09:52:46.836Z,41.29
2018-07-23T09:55:15.207Z,41.59
2018-07-23T09:57:43.568Z,41.35
2018-07-23T10:00:12.170Z,40.93
2018-07-23T10:02:41.113Z,40.90
2018-07-23T10:05:09.480Z,40.14
2018-07-23T10:07:37.867Z,40.72
2018-07-23T10:10:06.518Z,40.86
2018-07-23T10:12:34.881Z,40.94
2018-07-23T10:15:03.245Z,40.39
2018-07-23T10:17:31.645Z,40.20
2018-07-23T10:20:01.026Z,40.41
2018-07-23T10:22:28.644Z,40.59
2018-07-23T10:24:57.002Z,40.06
2018-07-23T10:27:25.767Z,39.62
2018-07-23T10:29:54.153Z,39.96
2018-07-23T10:32:22.521Z,39.90
2018-07-23T10:34:50.883Z,40.77
2018-07-23T10:37:19.248Z,40.28
2018-07-23T10:39:47.617Z,39.75
2018-07-23T10:42:15.973Z,39.32
2018-07-23T10:44:44.330Z,39.24
2018-07-23T10:47:12.701Z,39.51
2018-07-23T10:49:41.070Z,39.43
2018-07-23T10:52:09.429Z,39.57
2018-07-23T10:54:37.915Z,39.30
2018-07-23T10:57:06.279Z,39.47
2018-07-23T10:59:54.071Z,39.70
2018-07-23T11:02:22.421Z,39.07
2018-07-23T11:04:51.138Z,40.64
2018-07-23T11:07:19.583Z,41.02
2018-07-23T11:09:47.909Z,41.83
2018-07-23T11:12:16.293Z,41.63
2018-07-23T11:14:44.657Z,40.96
2018-07-23T11:17:13.012Z,41.48
2018-07-23T11:19:41.504Z,40.87
2018-07-23T11:22:09.857Z,42.04
2018-07-23T11:24:45.352Z,41.55
2018-07-23T11:27:06.589Z,40.92
2018-07-23T11:29:35.516Z,41.01
2018-07-23T11:32:03.876Z,40.32
2018-07-23T11:34:32.190Z,39.50
2018-07-23T11:37:01.774Z,40.00
2018-07-23T11:39:31.372Z,39.37
2018-07-23T11:41:59.701Z,39.55
2018-07-23T11:44:28.068Z,39.26
2018-07-23T11:46:56.436Z,38.22
2018-07-23T11:49:24.797Z,38.29
2018-07-23T11:51:53.154Z,38.46
2018-07-23T11:54:21.534Z,38.07
2018-07-23T11:56:49.929Z,39.10
2018-07-23T11:59:18.280Z,38.76
2018-07-23T12:01:46.673Z,37.75
2018-07-23T12:04:15.069Z,37.16
2018-07-23T12:06:43.415Z,36.93
2018-07-23T12:09:17.142Z,36.82
2018-07-23T12:11:41.406Z,36.43
2018-07-23T12:14:11.750Z,35.96
2018-07-23T12:16:40.524Z,35.99
2018-07-23T12:19:08.905Z,36.15
2018-07-23T12:21:37.317Z,36.02
2018-07-23T12:24:05.684Z,36.20
2018-07-23T12:26:34.962Z,35.43
2018-07-23T12:29:03.338Z,35.67
2018-07-23T12:31:31.724Z,35.71
2018-07-23T12:34:00.096Z,35.48
2018-07-23T12:36:28.671Z,35.87
2018-07-23T12:38:57.041Z,35.10
2018-07-23T12:41:25.410Z,34.74
2018-07-23T12:43:53.779Z,34.24
2018-07-23T12:46:22.155Z,34.47
2018-07-23T12:48:50.520Z,34.90
2018-07-23T12:51:18.918Z,35.03
2018-07-23T12:53:47.267Z,35.20
2018-07-23T12:56:15.635Z,34.95
2018-07-23T12:58:44.325Z,35.30
2018-07-23T13:01:12.689Z,35.80
2018-07-23T13:03:41.049Z,35.98
2018-07-23T13:06:09.415Z,35.87
2018-07-23T13:08:37.783Z,35.65
2018-07-23T13:11:06.148Z,35.65
2018-07-23T13:13:34.512Z,35.25
2018-07-23T13:16:02.886Z,34.89
2018-07-23T13:18:31.252Z,35.24
2018-07-23T13:20:59.611Z,35.37
2018-07-23T13:23:28.047Z,35.87
2018-07-23T13:25:56.435Z,35.54
2018-07-23T13:28:24.791Z,33.95
2018-07-23T13:30:53.505Z,33.96
2018-07-23T13:33:21.870Z,34.84
2018-07-23T13:35:50.236Z,34.28
2018-07-23T13:38:18.659Z,33.92
2018-07-23T13:40:46.964Z,34.37
2018-07-23T13:43:15.337Z,34.59
2018-07-23T13:45:43.704Z,34.22
2018-07-23T13:48:12.064Z,33.82
2018-07-23T13:50:40.678Z,33.53
2018-07-23T13:53:09.039Z,33.32
2018-07-23T13:55:37.411Z,33.10
2018-07-23T13:58:05.771Z,33.33
2018-07-23T14:00:35.103Z,32.82
2018-07-23T14:03:03.705Z,33.23
2018-07-23T14:05:31.849Z,32.95
2018-07-23T14:08:00.218Z,32.82
2018-07-23T14:10:28.915Z,32.59
2018-07-23T14:12:57.284Z,32.53
2018-07-23T14:15:25.648Z,32.16
2018-07-23T14:17:54.012Z,31.89
2018-07-23T14:20:22.662Z,32.12
2018-07-23T14:22:50.785Z,32.09
2018-07-23T14:25:22.282Z,32.07
2018-07-23T14:27:51.574Z,31.00
2018-07-23T14:30:19.952Z,30.48
2018-07-23T14:32:48.301Z,30.55
2018-07-23T14:35:16.723Z,30.90
2018-07-23T14:37:45.884Z,30.62
2018-07-23T14:40:14.247Z,32.15
2018-07-23T14:42:42.612Z,33.21
2018-07-23T14:45:11.048Z,34.57
2018-07-23T14:47:39.410Z,35.93
2018-07-23T14:50:07.795Z,36.09
2018-07-23T14:52:36.157Z,36.78
2018-07-23T14:55:04.516Z,37.37
2018-07-23T14:57:32.887Z,37.75
2018-07-23T15:00:01.253Z,38.10
2018-07-23T15:02:29.619Z,38.90
2018-07-23T15:05:09.039Z,39.15
2018-07-23T15:07:27.532Z,38.99
2018-07-23T15:09:55.892Z,38.98
2018-07-23T15:12:24.254Z,39.15
2018-07-23T15:14:53.387Z,38.48
2018-07-23T15:17:21.747Z,37.31
2018-07-23T15:19:50.125Z,36.35
2018-07-23T15:22:18.495Z,36.88
2018-07-23T15:24:47.188Z,36.36
2018-07-23T15:27:15.594Z,35.99
2018-07-23T15:29:43.961Z,35.71
2018-07-23T15:32:12.551Z,35.43
2018-07-23T15:34:40.912Z,34.98
2018-07-23T15:37:09.282Z,34.86
2018-07-23T15:39:37.645Z,34.66
2018-07-23T15:42:06.002Z,34.71
2018-07-23T15:44:34.512Z,35.19
2018-07-23T15:47:02.727Z,35.38
2018-07-23T15:49:31.088Z,35.07
2018-07-23T15:51:59.455Z,35.24
2018-07-23T15:54:27.818Z,35.41
2018-07-23T15:56:56.519Z,35.72
2018-07-23T15:59:24.878Z,36.49
2018-07-23T16:01:53.237Z,36.63
2018-07-23T16:04:21.602Z,36.76
2018-07-23T16:06:49.951Z,37.05
2018-07-23T16:09:18.337Z,37.11
2018-07-23T16:11:46.682Z,37.55
2018-07-23T16:14:15.051Z,36.41
2018-07-23T16:16:43.647Z,36.26
2018-07-23T16:19:11.770Z,36.04
2018-07-23T16:21:40.126Z,36.27
2018-07-23T16:24:08.477Z,36.17
2018-07-23T16:26:36.837Z,35.65
2018-07-23T16:29:05.232Z,35.62
2018-07-23T16:31:33.597Z,35.85
2018-07-23T16:34:01.961Z,36.64
2018-07-23T16:36:30.318Z,37.28
2018-07-23T16:38:58.675Z,37.63
2018-07-23T16:41:27.031Z,37.96
2018-07-23T16:43:55.395Z,38.16
2018-07-23T16:46:23.819Z,37.84
2018-07-23T16:48:52.110Z,38.21
2018-07-23T16:51:20.477Z,38.89
2018-07-23T16:53:48.865Z,40.02
2018-07-23T16:56:17.224Z,40.93
2018-07-23T16:58:45.671Z,41.83
2018-07-23T17:01:14.170Z,43.42
2018-07-23T17:03:42.524Z,45.08
2018-07-23T17:06:10.914Z,46.00
2018-07-23T17:08:39.279Z,46.55
2018-07-23T17:11:07.661Z,46.97
2018-07-23T17:13:36.029Z,47.60
2018-07-23T17:16:04.391Z,47.71
2018-07-23T17:18:32.745Z,48.14
2018-07-23T17:21:01.107Z,48.55
2018-07-23T17:23:29.473Z,48.58
2018-07-23T17:25:57.836Z,48.54
2018-07-23T17:28:26.222Z,48.69
2018-07-23T17:30:54.680Z,49.29
2018-07-23T17:33:23.051Z,49.74
2018-07-23T17:35:51.415Z,50.17
2018-07-23T17:38:19.791Z,50.65
2018-07-23T17:40:48.155Z,50.68
2018-07-23T17:43:16.521Z,50.85
2018-07-23T17:45:44.921Z,50.95
2018-07-23T17:48:13.282Z,51.30
2018-07-23T17:50:47.418Z,51.32
2018-07-23T17:53:20.488Z,51.29
2018-07-23T17:55:48.873Z,51.67
2018-07-23T17:58:17.254Z,52.24
2018-07-23T18:00:45.640Z,52.75
2018-07-23T18:03:14.011Z,52.96
2018-07-23T18:05:42.424Z,53.56
2018-07-23T18:08:10.870Z,53.72
2018-07-23T18:10:39.286Z,53.58
2018-07-23T18:13:07.621Z,53.84
2018-07-23T18:15:36.084Z,54.46
2018-07-23T18:18:04.527Z,55.08
2018-07-23T18:20:33.560Z,55.00
2018-07-23T18:23:01.911Z,55.16
2018-07-23T18:25:30.298Z,55.41
2018-07-23T18:27:58.893Z,55.59
2018-07-23T18:30:27.045Z,55.53
2018-07-23T18:32:57.327Z,55.50
2018-07-23T18:35:25.725Z,55.16
2018-07-23T18:37:54.220Z,55.16
2018-07-23T18:40:22.477Z,55.40
2018-07-23T18:42:50.896Z,55.52
2018-07-23T18:45:19.258Z,55.81
2018-07-23T18:47:49.546Z,56.35
2018-07-23T18:50:17.895Z,57.16
2018-07-23T18:52:46.265Z,57.96
2018-07-23T18:55:14.628Z,58.45
2018-07-23T18:57:42.997Z,59.35
2018-07-23T19:00:11.419Z,60.00
2018-07-23T19:02:39.833Z,60.61
2018-07-23T19:05:08.211Z,61.10
2018-07-23T19:07:36.603Z,61.47
2018-07-23T19:10:05.888Z,62.07
2018-07-23T19:12:34.269Z,62.57
2018-07-23T19:15:02.645Z,62.79
2018-07-23T19:17:31.043Z,62.82
2018-07-23T19:19:59.468Z,63.12
2018-07-23T19:22:27.801Z,63.59
2018-07-23T19:24:56.171Z,63.99
2018-07-23T19:27:24.541Z,64.42
2018-07-23T19:29:55.810Z,64.94
2018-07-23T19:35:11.348Z,65.63
2018-07-23T19:37:39.714Z,65.88
2018-07-23T19:40:08.080Z,65.97
2018-07-23T19:42:36.481Z,66.19
2018-07-23T19:45:04.869Z,66.41
2018-07-23T19:47:33.327Z,66.43
2018-07-23T19:50:01.629Z,66.44
2018-07-23T19:52:30.261Z,66.56
2018-07-23T19:54:58.407Z,66.47
2018-07-23T19:57:29.788Z,66.69
2018-07-23T20:02:42.164Z,67.80
2018-07-23T20:05:10.609Z,67.97
2018-07-23T20:07:39.163Z,68.05
2018-07-23T20:10:07.319Z,68.13
2018-07-23T20:12:37.351Z,68.29
2018-07-23T20:15:17.923Z,68.65
2018-07-23T20:17:46.426Z,68.92
2018-07-23T20:20:14.876Z,69.42
2018-07-23T20:22:43.199Z,69.79
2018-07-23T20:25:11.845Z,70.06
2018-07-23T20:27:40.254Z,70.37
2018-07-23T20:30:08.693Z,70.58
2018-07-23T20:32:37.029Z,70.84
2018-07-23T20:35:05.424Z,70.85
2018-07-23T20:40:14.023Z,71.00
2018-07-23T20:42:42.355Z,71.16
2018-07-23T20:45:15.301Z,71.36
2018-07-23T20:50:34.243Z,71.81
2018-07-23T20:53:02.612Z,71.87
2018-07-23T20:55:30.984Z,71.60
2018-07-23T20:57:59.356Z,71.77
2018-07-23T21:00:27.829Z,72.07
2018-07-23T21:02:56.125Z,72.42
2018-07-23T21:05:24.508Z,72.66
2018-07-23T21:07:52.877Z,72.56
2018-07-23T21:10:21.250Z,72.69
2018-07-23T21:12:49.626Z,72.92
2018-07-23T21:15:17.998Z,73.30
2018-07-23T21:17:49.393Z,73.51
2018-07-23T21:20:17.795Z,73.76
2018-07-23T21:22:46.167Z,73.54
2018-07-23T21:25:14.557Z,73.53
2018-07-23T21:27:42.943Z,73.29
2018-07-23T21:30:11.544Z,73.27
2018-07-23T21:32:39.940Z,72.83
2018-07-23T21:35:09.191Z,72.13
2018-07-23T21:37:37.593Z,71.76
2018-07-23T21:40:05.958Z,71.48
2018-07-23T21:42:34.326Z,71.24
2018-07-23T21:45:02.691Z,71.05
2018-07-23T21:47:31.083Z,71.03
2018-07-23T21:49:59.485Z,71.27
2018-07-23T21:52:33.371Z,71.74
2018-07-23T21:55:01.774Z,71.65
2018-07-23T21:57:30.147Z,71.31
2018-07-23T21:59:58.544Z,70.99
2018-07-23T22:02:26.887Z,70.94
2018-07-23T22:04:55.273Z,70.96
2018-07-23T22:07:23.644Z,70.62
2018-07-23T22:09:52.485Z,70.37
2018-07-23T22:12:20.861Z,70.50
2018-07-23T22:14:49.262Z,70.53
2018-07-23T22:17:17.657Z,70.62
2018-07-23T22:19:55.608Z,70.74
2018-07-23T22:22:23.981Z,70.78
2018-07-23T22:24:52.652Z,70.96
2018-07-23T22:27:21.024Z,71.02
2018-07-23T22:29:49.390Z,71.39
2018-07-23T22:32:17.757Z,71.80
2018-07-23T22:34:46.122Z,72.12
2018-07-23T22:37:14.526Z,72.01
2018-07-23T22:39:43.620Z,71.84
2018-07-23T22:42:12.953Z,72.00
2018-07-23T22:44:41.225Z,72.12
2018-07-23T22:47:09.504Z,72.17
2018-07-23T22:49:37.881Z,72.15
2018-07-23T22:52:06.250Z,72.22
2018-07-23T22:54:34.630Z,72.41
2018-07-23T22:57:03.003Z,72.61
2018-07-23T22:59:31.377Z,72.79
2018-07-23T23:01:59.752Z,73.09
2018-07-23T23:04:28.122Z,73.20
2018-07-23T23:06:56.491Z,73.20
2018-07-23T23:09:24.859Z,73.45
2018-07-23T23:11:53.243Z,73.41
2018-07-23T23:14:21.616Z,73.53
2018-07-23T23:16:50.280Z,73.46
2018-07-23T23:19:18.660Z,73.52
2018-07-23T23:21:47.355Z,73.56
2018-07-23T23:24:15.728Z,73.77
2018-07-23T23:26:44.094Z,73.71
2018-07-23T23:29:12.464Z,73.81
2018-07-23T23:31:40.834Z,74.21
2018-07-23T23:34:09.204Z,74.41
2018-07-23T23:36:37.592Z,74.69
2018-07-23T23:39:05.999Z,74.77
2018-07-23T23:41:34.369Z,75.49
2018-07-23T23:44:02.742Z,75.58
2018-07-23T23:46:31.129Z,75.62
2018-07-23T23:48:59.723Z,75.38
2018-07-23T23:51:27.869Z,75.20
2018-07-23T23:53:56.237Z,75.16
2018-07-23T23:56:24.614Z,75.08
2018-07-23T23:58:52.981Z,75.34
